Time;durP1;ratioP1;P1;durP2;ratioP2;P2;SDS_P1;SDS_P2;PMS_P1;PMS_P2;Temp;Humidity;BMP_temperature;BMP_pressure;BME280_temperature;BME280_humidity;BME280_pressure;Samples;Min_cycle;Max_cycle;Signal;HPM_P1;HPM_P2
2023/07/01 00:02:14;;;;;;;6.60;1.92;;;;;;;;;;5105400;28;20036;-44
2023/07/01 00:04:41;;;;;;;3.33;1.40;;;;;;;;;;5105611;28;20031;-50
2023/07/01 00:07:07;;;;;;;4.90;1.45;;;;;;;;;;5105576;28;20079;-48
2023/07/01 00:09:34;;;;;;;3.30;1.50;;;;;;;;;;5105359;28;20228;-51
2023/07/01 00:12:01;;;;;;;5.55;1.30;;;;;;;;;;5105393;28;20093;-52
2023/07/01 00:14:27;;;;;;;3.80;1.33;;;;;;;;;;5105820;28;20032;-52
2023/07/01 00:16:54;;;;;;;5.00;1.65;;;;;;;;;;5105326;28;20271;-45
2023/07/01 00:19:21;;;;;;;6.45;1.50;;;;;;;;;;5105639;28;20027;-51
2023/07/01 00:21:48;;;;;;;4.38;1.40;;;;;;;;;;5105262;28;20024;-52
2023/07/01 00:24:14;;;;;;;6.90;1.65;;;;;;;;;;5104561;28;20036;-48
2023/07/01 00:26:41;;;;;;;5.75;1.60;;;;;;;;;;5104957;28;20022;-45
2023/07/01 00:29:07;;;;;;;3.75;1.60;;;;;;;;;;5105545;28;20020;-51
2023/07/01 00:31:34;;;;;;;6.75;1.80;;;;;;;;;;5104944;28;20044;-49
2023/07/01 00:34:00;;;;;;;5.65;2.00;;;;;;;;;;5104784;28;20092;-48
2023/07/01 00:36:31;;;;;;;5.53;1.88;;;;;;;;;;5104963;28;20028;-49
2023/07/01 00:38:57;;;;;;;7.45;2.53;;;;;;;;;;5105164;28;20024;-51
2023/07/01 00:41:24;;;;;;;4.40;2.22;;;;;;;;;;5104868;28;20032;-44
2023/07/01 00:43:50;;;;;;;4.57;2.50;;;;;;;;;;5105143;28;20020;-46
2023/07/01 00:46:17;;;;;;;4.35;1.90;;;;;;;;;;5104722;28;20039;-53
2023/07/01 00:48:44;;;;;;;5.70;1.90;;;;;;;;;;5104836;28;20024;-47
2023/07/01 00:51:12;;;;;;;6.38;1.77;;;;;;;;;;5104703;28;20301;-52
2023/07/01 00:53:39;;;;;;;7.13;1.80;;;;;;;;;;5104823;28;20039;-52
2023/07/01 00:56:06;;;;;;;4.00;1.60;;;;;;;;;;5104416;28;20024;-50
2023/07/01 00:58:35;;;;;;;5.13;1.63;;;;;;;;;;5104882;28;20245;-46
2023/07/01 01:01:05;;;;;;;4.18;1.40;;;;;;;;;;5104787;28;20036;-48
2023/07/01 01:03:36;;;;;;;4.65;1.80;;;;;;;;;;5104414;28;20024;-55
2023/07/01 01:06:18;;;;;;;33.10;10.10;;;;;;;;;;5104534;28;20039;-44
2023/07/01 01:08:56;;;;;;;23.33;6.43;;;;;;;;;;5104656;28;20024;-46
2023/07/01 01:11:24;;;;;;;21.50;6.00;;;;;;;;;;5103206;28;20342;-53
2023/07/01 01:13:51;;;;;;;18.35;3.70;;;;;;;;;;5104406;28;20092;-49
2023/07/01 01:16:17;;;;;;;13.15;3.78;;;;;;;;;;5104269;28;20027;-52
2023/07/01 01:18:44;;;;;;;10.80;3.38;;;;;;;;;;5104604;28;20039;-48
2023/07/01 01:21:14;;;;;;;13.70;7.32;;;;;;;;;;5104175;28;20130;-48
2023/07/01 01:23:44;;;;;;;13.60;5.70;;;;;;;;;;5088571;28;20020;-45
2023/07/01 01:26:16;;;;;;;5.68;3.00;;;;;;;;;;5083928;28;20041;-52
2023/07/01 01:28:43;;;;;;;6.68;3.45;;;;;;;;;;5084135;28;20094;-49
2023/07/01 01:31:11;;;;;;;6.35;2.30;;;;;;;;;;5083812;28;20032;-48
2023/07/01 01:33:39;;;;;;;5.32;1.70;;;;;;;;;;5083654;28;20044;-53
2023/07/01 01:36:13;;;;;;;7.07;2.65;;;;;;;;;;5083457;28;20437;-56
2023/07/01 01:38:43;;;;;;;3.65;1.75;;;;;;;;;;5084210;28;20037;-46
2023/07/01 01:41:34;;;;;;;4.22;2.28;;;;;;;;;;5099748;28;20070;-48
2023/07/01 01:44:05;;;;;;;5.72;2.38;;;;;;;;;;5078992;28;20045;-54
2023/07/01 01:46:32;;;;;;;5.07;2.53;;;;;;;;;;5086911;28;20036;-44
2023/07/01 01:49:03;;;;;;;4.20;2.72;;;;;;;;;;5094599;28;20204;-46
2023/07/01 01:51:31;;;;;;;6.22;2.40;;;;;;;;;;5103958;28;20312;-49
2023/07/01 01:53:58;;;;;;;3.42;2.13;;;;;;;;;;5104224;28;20036;-44
2023/07/01 01:56:27;;;;;;;5.72;2.15;;;;;;;;;;5103936;28;20032;-48
2023/07/01 01:58:53;;;;;;;5.43;1.88;;;;;;;;;;5104191;28;20031;-47
2023/07/01 02:01:20;;;;;;;3.47;1.83;;;;;;;;;;5103730;28;20024;-55
2023/07/01 02:03:47;;;;;;;4.85;1.75;;;;;;;;;;5103750;28;20042;-52
2023/07/01 02:06:13;;;;;;;4.88;1.85;;;;;;;;;;5103819;28;20320;-47
2023/07/01 02:08:40;;;;;;;4.38;1.38;;;;;;;;;;5098231;28;20028;-54
2023/07/01 02:11:08;;;;;;;6.13;1.80;;;;;;;;;;5096275;28;20043;-45
2023/07/01 02:13:34;;;;;;;5.82;2.10;;;;;;;;;;5103796;28;20238;-46
2023/07/01 02:16:01;;;;;;;4.03;2.20;;;;;;;;;;5103568;28;20083;-51
2023/07/01 02:18:28;;;;;;;6.68;2.25;;;;;;;;;;5102204;28;20020;-44
2023/07/01 02:20:54;;;;;;;3.72;1.45;;;;;;;;;;5103714;28;20036;-44
2023/07/01 02:23:21;;;;;;;6.07;2.05;;;;;;;;;;5103531;28;20024;-48
2023/07/01 02:25:47;;;;;;;2.97;1.60;;;;;;;;;;5103600;28;20020;-45
2023/07/01 02:28:15;;;;;;;2.90;1.33;;;;;;;;;;5103813;28;20028;-43
2023/07/01 02:30:42;;;;;;;2.78;1.60;;;;;;;;;;5103393;28;20028;-47
2023/07/01 02:33:08;;;;;;;4.32;1.60;;;;;;;;;;5103186;28;20048;-43
2023/07/01 02:35:35;;;;;;;5.55;1.50;;;;;;;;;;5103812;28;20227;-52
2023/07/01 02:38:02;;;;;;;5.70;1.60;;;;;;;;;;5103000;28;20028;-53
2023/07/01 02:40:28;;;;;;;4.70;1.45;;;;;;;;;;5103488;28;20015;-49
2023/07/01 02:42:55;;;;;;;3.60;1.48;;;;;;;;;;5103530;28;20035;-52
2023/07/01 02:45:21;;;;;;;6.90;1.67;;;;;;;;;;5103203;28;20036;-47
2023/07/01 02:47:48;;;;;;;7.63;1.70;;;;;;;;;;5104679;28;20028;-51
2023/07/01 02:50:16;;;;;;;10.75;1.92;;;;;;;;;;5106994;28;20028;-49
2023/07/01 02:52:42;;;;;;;3.67;1.23;;;;;;;;;;5106949;28;20020;-55
2023/07/01 02:55:10;;;;;;;7.38;1.65;;;;;;;;;;5106977;28;20035;-53
2023/07/01 02:57:36;;;;;;;6.93;1.55;;;;;;;;;;5107028;28;20040;-52
2023/07/01 03:00:07;;;;;;;5.25;1.40;;;;;;;;;;5106879;28;20319;-53
2023/07/01 03:02:34;;;;;;;9.77;1.67;;;;;;;;;;5106786;28;20311;-48
2023/07/01 03:05:00;;;;;;;8.43;1.85;;;;;;;;;;5106757;28;20204;-52
2023/07/01 03:07:27;;;;;;;8.15;1.30;;;;;;;;;;5106626;28;20032;-49
2023/07/01 03:09:54;;;;;;;6.15;1.15;;;;;;;;;;5106702;28;20024;-52
2023/07/01 03:12:21;;;;;;;6.60;1.10;;;;;;;;;;5106538;28;20051;-46
2023/07/01 03:14:47;;;;;;;12.30;1.10;;;;;;;;;;5106431;28;20343;-50
2023/07/01 03:17:15;;;;;;;5.32;1.00;;;;;;;;;;5106310;28;20020;-47
2023/07/01 03:19:42;;;;;;;6.78;1.23;;;;;;;;;;5106477;28;20331;-50
2023/07/01 03:22:08;;;;;;;5.35;0.98;;;;;;;;;;5106246;28;20028;-50
2023/07/01 03:24:35;;;;;;;8.68;1.20;;;;;;;;;;5106135;28;20032;-48
2023/07/01 03:27:04;;;;;;;7.57;1.08;;;;;;;;;;5106382;28;20038;-47
2023/07/01 03:29:31;;;;;;;6.63;1.05;;;;;;;;;;5106273;28;20114;-53
2023/07/01 03:31:58;;;;;;;5.95;1.02;;;;;;;;;;5106181;28;20308;-55
2023/07/01 03:34:25;;;;;;;6.85;0.90;;;;;;;;;;5106086;28;20115;-48
2023/07/01 03:36:52;;;;;;;6.30;1.20;;;;;;;;;;5106148;28;20320;-52
2023/07/01 03:39:19;;;;;;;3.67;0.90;;;;;;;;;;5106513;28;20244;-54
2023/07/01 03:41:46;;;;;;;4.15;0.98;;;;;;;;;;5106282;28;20032;-49
2023/07/01 03:44:12;;;;;;;4.93;1.08;;;;;;;;;;5106409;28;20039;-52
2023/07/01 03:46:39;;;;;;;6.68;1.13;;;;;;;;;;5105813;28;20024;-48
2023/07/01 03:49:06;;;;;;;4.40;0.90;;;;;;;;;;5106359;28;20028;-47
2023/07/01 03:51:32;;;;;;;7.95;1.10;;;;;;;;;;5106112;28;20316;-49
2023/07/01 03:53:59;;;;;;;5.68;0.82;;;;;;;;;;5106189;28;20023;-52
2023/07/01 03:56:26;;;;;;;7.18;1.10;;;;;;;;;;5105675;28;20038;-47
2023/07/01 03:58:53;;;;;;;7.95;1.10;;;;;;;;;;5105896;28;20091;-53
2023/07/01 04:01:21;;;;;;;4.78;1.02;;;;;;;;;;5105496;28;20036;-55
2023/07/01 04:03:48;;;;;;;6.28;1.00;;;;;;;;;;5105959;28;20100;-55
2023/07/01 04:06:15;;;;;;;6.25;0.85;;;;;;;;;;5105572;28;20253;-49
2023/07/01 04:08:41;;;;;;;2.80;0.60;;;;;;;;;;5105681;28;20075;-48
2023/07/01 04:11:08;;;;;;;8.38;1.00;;;;;;;;;;5105538;28;20020;-52
2023/07/01 04:13:34;;;;;;;6.53;1.10;;;;;;;;;;5105831;28;20036;-48
2023/07/01 04:16:02;;;;;;;12.43;1.10;;;;;;;;;;5104065;28;20240;-49
2023/07/01 04:18:29;;;;;;;6.57;0.90;;;;;;;;;;5105634;28;20036;-46
2023/07/01 04:20:55;;;;;;;3.70;0.90;;;;;;;;;;5105200;28;20095;-50
2023/07/01 04:23:22;;;;;;;6.50;0.68;;;;;;;;;;5105191;28;20190;-50
2023/07/01 04:25:48;;;;;;;5.40;0.85;;;;;;;;;;5105236;28;20061;-48
2023/07/01 04:28:15;;;;;;;3.50;0.70;;;;;;;;;;5105427;28;20028;-49
2023/07/01 04:30:42;;;;;;;7.90;1.05;;;;;;;;;;5104963;28;20024;-51
2023/07/01 04:33:08;;;;;;;9.32;1.20;;;;;;;;;;5105096;28;20051;-47
2023/07/01 04:35:35;;;;;;;5.07;1.23;;;;;;;;;;5104968;28;20232;-52
2023/07/01 04:38:02;;;;;;;5.80;0.80;;;;;;;;;;5104996;28;20047;-52
2023/07/01 04:40:28;;;;;;;6.35;1.13;;;;;;;;;;5086233;28;20062;-48
2023/07/01 04:42:55;;;;;;;6.20;0.73;;;;;;;;;;5084788;28;20032;-56
2023/07/01 04:45:21;;;;;;;4.15;0.95;;;;;;;;;;5084398;28;20074;-55
2023/07/01 04:47:49;;;;;;;5.35;0.80;;;;;;;;;;5084695;28;20271;-48
2023/07/01 04:50:15;;;;;;;4.60;0.95;;;;;;;;;;5084434;28;20028;-51
2023/07/01 04:52:43;;;;;;;5.90;1.25;;;;;;;;;;5084463;28;20063;-54
2023/07/01 04:55:10;;;;;;;5.35;0.82;;;;;;;;;;5084344;28;20040;-52
2023/07/01 04:57:36;;;;;;;7.20;1.00;;;;;;;;;;5084462;28;20039;-47
2023/07/01 05:00:05;;;;;;;7.20;0.98;;;;;;;;;;5084369;28;20023;-48
2023/07/01 05:02:31;;;;;;;4.60;0.80;;;;;;;;;;5084356;28;20029;-53
2023/07/01 05:04:58;;;;;;;5.53;0.90;;;;;;;;;;5084500;28;20039;-50
2023/07/01 05:07:26;;;;;;;6.05;1.13;;;;;;;;;;5084306;28;20077;-45
2023/07/01 05:09:52;;;;;;;6.45;1.00;;;;;;;;;;5083877;28;20033;-47
2023/07/01 05:12:19;;;;;;;7.00;1.40;;;;;;;;;;5084063;28;20029;-47
2023/07/01 05:14:45;;;;;;;6.22;1.00;;;;;;;;;;5084046;28;20035;-45
2023/07/01 05:17:12;;;;;;;5.95;0.95;;;;;;;;;;5083993;28;20040;-46
2023/07/01 05:19:39;;;;;;;2.45;0.80;;;;;;;;;;5084225;28;20048;-45
2023/07/01 05:22:05;;;;;;;7.20;1.20;;;;;;;;;;5084111;28;20020;-51
2023/07/01 05:24:32;;;;;;;6.18;1.15;;;;;;;;;;5083774;28;20082;-46
2023/07/01 05:26:58;;;;;;;3.97;1.27;;;;;;;;;;5084096;28;20070;-47
2023/07/01 05:29:26;;;;;;;7.75;1.35;;;;;;;;;;5084487;28;20027;-59
2023/07/01 05:31:53;;;;;;;4.90;1.23;;;;;;;;;;5083798;28;20451;-56
2023/07/01 05:34:20;;;;;;;3.67;1.10;;;;;;;;;;5083833;28;20045;-52
2023/07/01 05:36:47;;;;;;;3.90;0.93;;;;;;;;;;5083950;28;20034;-47
2023/07/01 05:39:13;;;;;;;10.35;1.45;;;;;;;;;;5084175;28;20032;-48
2023/07/01 05:41:41;;;;;;;5.60;1.25;;;;;;;;;;5083962;28;20036;-49
2023/07/01 05:44:08;;;;;;;8.85;1.08;;;;;;;;;;5084224;28;20016;-48
2023/07/01 05:46:34;;;;;;;5.78;1.02;;;;;;;;;;5083666;28;20054;-47
2023/07/01 05:49:01;;;;;;;5.80;1.48;;;;;;;;;;5084232;28;20079;-46
2023/07/01 05:51:28;;;;;;;5.10;1.15;;;;;;;;;;5097890;28;20219;-45
2023/07/01 05:53:54;;;;;;;7.20;1.10;;;;;;;;;;5087724;28;20028;-47
2023/07/01 05:56:21;;;;;;;4.63;1.02;;;;;;;;;;5083805;28;20043;-45
2023/07/01 05:58:47;;;;;;;6.25;1.10;;;;;;;;;;5084066;28;20028;-47
2023/07/01 06:01:14;;;;;;;6.65;1.00;;;;;;;;;;5083503;28;20371;-47
2023/07/01 06:03:40;;;;;;;4.88;0.95;;;;;;;;;;5083950;28;20095;-49
2023/07/01 06:06:07;;;;;;;5.03;0.95;;;;;;;;;;5083548;28;20028;-48
2023/07/01 06:08:33;;;;;;;5.65;1.08;;;;;;;;;;5083731;28;20318;-48
2023/07/01 06:11:00;;;;;;;2.88;0.80;;;;;;;;;;5083646;28;20315;-46
2023/07/01 06:13:27;;;;;;;4.82;0.98;;;;;;;;;;5083899;28;20074;-46
2023/07/01 06:15:53;;;;;;;4.93;1.20;;;;;;;;;;5083393;28;20041;-46
2023/07/01 06:18:20;;;;;;;4.45;0.90;;;;;;;;;;5083892;28;20044;-48
2023/07/01 06:20:46;;;;;;;6.45;1.20;;;;;;;;;;5082263;28;20020;-52
2023/07/01 06:23:13;;;;;;;4.43;1.00;;;28.60;99.90;;;;;;5085171;28;20096;-48
2023/07/01 06:25:41;;;;;;;2.58;0.90;;;28.60;99.90;;;;;;5087438;28;20063;-48
2023/07/01 06:28:07;;;;;;;4.63;1.02;;;28.50;99.90;;;;;;5087478;28;20079;-44
2023/07/01 06:30:34;;;;;;;5.18;1.30;;;28.60;99.90;;;;;;5087112;28;20028;-56
2023/07/01 06:33:00;;;;;;;7.00;1.35;;;;;;;;;;5087342;28;20105;-48
2023/07/01 06:35:27;;;;;;;6.30;1.10;;;;;;;;;;5087049;28;20320;-46
2023/07/01 06:37:53;;;;;;;5.25;1.20;;;;;;;;;;5087096;28;20036;-47
2023/07/01 06:40:20;;;;;;;4.70;1.33;;;;;;;;;;5086828;28;20064;-53
2023/07/01 06:42:46;;;;;;;4.00;1.20;;;;;;;;;;5087080;28;20032;-52
2023/07/01 06:45:13;;;;;;;5.20;1.10;;;;;;;;;;5086797;28;20032;-46
2023/07/01 06:47:40;;;;;;;4.53;1.17;;;;;;;;;;5086750;28;20044;-48
2023/07/01 06:50:07;;;;;;;4.45;1.13;;;;;;;;;;5086856;28;20027;-46
2023/07/01 06:52:33;;;;;;;2.65;1.10;;;;;;;;;;5086746;28;20028;-53
2023/07/01 06:55:00;;;;;;;4.18;1.20;;;;;;;;;;5086554;28;20062;-46
2023/07/01 06:57:28;;;;;;;3.55;0.98;;;;;;;;;;5086710;28;20020;-46
2023/07/01 06:59:55;;;;;;;5.35;1.40;;;;;;;;;;5086650;28;20046;-46
2023/07/01 07:02:21;;;;;;;7.60;1.33;;;;;;;;;;5102365;28;20401;-46
2023/07/01 07:04:48;;;;;;;3.28;1.25;;;;;;;;;;5106800;28;20046;-47
2023/07/01 07:07:14;;;;;;;5.38;1.30;;;;;;;;;;5106713;28;20043;-48
2023/07/01 07:09:41;;;;;;;4.38;1.42;;;;;;;;;;5106591;28;20078;-50
2023/07/01 07:12:08;;;;;;;6.53;1.65;;;;;;;;;;5106631;28;20020;-47
2023/07/01 07:14:34;;;;;;;6.70;1.40;;;;;;;;;;5106618;28;20105;-47
2023/07/01 07:17:01;;;;;;;4.25;1.40;;;;;;;;;;5106423;28;20035;-50
2023/07/01 07:19:27;;;;;;;6.45;1.48;;;;;;;;;;5106970;28;20027;-46
2023/07/01 07:21:54;;;;;;;5.70;1.50;;;;;;;;;;5106515;28;20253;-51
2023/07/01 07:24:21;;;;;;;7.22;1.70;;;;;;;;;;5106641;28;20070;-46
2023/07/01 07:26:57;;;;;;;8.43;1.30;;;;;;;;;;5106470;28;20023;-46
2023/07/01 07:29:27;;;;;;;6.35;1.50;;;;;;;;;;5106859;28;20189;-48
2023/07/01 07:31:55;;;;;;;7.22;1.10;;;;;;;;;;5106121;28;20035;-48
2023/07/01 07:34:21;;;;;;;7.95;1.20;;;;;;;;;;5105739;28;20385;-46
2023/07/01 07:36:48;;;;;;;6.20;1.70;;;;;;;;;;5106147;28;20099;-48
2023/07/01 07:39:15;;;;;;;8.57;1.73;;;;;;;;;;5106403;28;20216;-48
2023/07/01 07:41:42;;;;;;;5.20;1.35;;;;;;;;;;5106139;28;20031;-53
2023/07/01 07:44:08;;;;;;;8.00;1.58;;;;;;;;;;5106435;28;20036;-52
2023/07/01 07:46:36;;;;;;;11.57;2.00;;;;;;;;;;5105829;28;20099;-45
2023/07/01 07:49:02;;;;;;;5.25;1.48;;;;;;;;;;5106548;28;20016;-45
2023/07/01 07:51:29;;;;;;;4.82;1.40;;;;;;;;;;5105922;28;20036;-45
2023/07/01 07:53:56;;;;;;;9.27;1.60;;;;;;;;;;5106064;28;20043;-52
2023/07/01 07:56:23;;;;;;;7.80;1.55;;;;;;;;;;5105859;28;20020;-45
2023/07/01 07:58:49;;;;;;;8.32;1.70;;;;;;;;;;5106046;28;20036;-47
2023/07/01 08:01:16;;;;;;;8.40;1.75;;;;;;;;;;5105535;28;20036;-44
2023/07/01 08:03:42;;;;;;;5.72;1.40;;;;;;;;;;5105937;28;20019;-47
2023/07/01 08:06:09;;;;;;;8.57;1.90;;;;;;;;;;5105579;28;20040;-51
2023/07/01 08:08:36;;;;;;;8.55;1.92;;;;;;;;;;5105668;28;20024;-47
2023/07/01 08:11:03;;;;;;;11.25;2.08;;;;;;;;;;5105593;28;20027;-46
2023/07/01 08:13:29;;;;;;;8.13;2.03;;;;;;;;;;5105652;28;20031;-46
2023/07/01 08:15:57;;;;;;;9.02;1.85;;;;;;;;;;5105205;28;20031;-48
2023/07/01 08:18:24;;;;;;;9.63;1.98;;;;;;;;;;5105540;28;20042;-45
2023/07/01 08:20:51;;;;;;;10.38;2.13;;;;;;;;;;5105355;28;20076;-45
2023/07/01 08:23:17;;;;;;;11.05;2.30;;;;;;;;;;5105154;28;20360;-53
2023/07/01 08:25:44;;;;;;;13.75;1.90;;;;;;;;;;5105400;28;20194;-47
2023/07/01 08:28:11;;;;;;;10.90;2.28;;;;;;;;;;5105386;28;20027;-51
2023/07/01 08:30:37;;;;;;;6.80;2.05;;;;;;;;;;5105013;28;20039;-49
2023/07/01 08:33:04;;;;;;;14.13;2.17;;;;;;;;;;5105133;28;20040;-48
2023/07/01 08:35:30;;;;;;;5.18;1.98;;;;;;;;;;5105130;28;20073;-45
2023/07/01 08:37:57;;;;;;;10.55;1.85;;;;;;;;;;5104969;28;20020;-53
2023/07/01 08:40:23;;;;;;;7.78;2.38;;;;;;;;;;5105162;28;20043;-53
2023/07/01 08:42:59;;;;;;;7.20;1.90;;;;;;;;;;5105092;28;20316;-47
2023/07/01 08:45:26;;;;;;;7.80;1.95;;;;;;;;;;5103875;28;20032;-50
2023/07/01 08:47:55;;;;;;;4.10;1.75;;;;;;;;;;5104945;28;20043;-45
2023/07/01 08:50:23;;;;;;;9.93;2.40;;;;;;;;;;5104811;28;20028;-45
2023/07/01 08:53:01;;;;;;;5.95;1.70;;;;;;;;;;5104870;28;20058;-47
2023/07/01 08:55:28;;;;;;;4.63;1.70;;;;;;;;;;5104927;28;20343;-47
2023/07/01 08:57:54;;;;;;;7.72;1.52;;;;;;;;;;5104678;28;20028;-47
2023/07/01 09:00:21;;;;;;;10.98;1.88;;;;;;;;;;5104811;28;20216;-48
2023/07/01 09:02:48;;;;;;;5.60;1.67;;;;;;;;;;5104652;28;20212;-45
2023/07/01 09:05:15;;;;;;;6.75;1.63;;;;;;;;;;5104446;28;20090;-51
2023/07/01 09:07:42;;;;;;;6.82;1.70;;;;;;;;;;5104700;28;20039;-49
2023/07/01 09:10:09;;;;;;;5.75;1.65;;;;;;;;;;5104534;28;20063;-46
2023/07/01 09:12:35;;;;;;;9.63;1.83;;;;;;;;;;5104464;28;20069;-45
2023/07/01 09:15:02;;;;;;;7.07;1.70;;;;;;;;;;5104198;28;20346;-48
2023/07/01 09:17:29;;;;;;;4.25;1.25;;;;;;;;;;5104345;28;20059;-53
2023/07/01 09:19:58;;;;;;;5.43;1.38;;;;;;;;;;5104337;28;20060;-53
2023/07/01 09:22:25;;;;;;;3.22;1.35;;;;;;;;;;5104228;28;20312;-56
2023/07/01 09:24:51;;;;;;;6.05;1.38;;;;;;;;;;5104180;28;20040;-51
2023/07/01 09:27:18;;;;;;;9.05;1.42;;;;;;;;;;5085184;28;20032;-48
2023/07/01 09:29:45;;;;;;;8.25;1.92;;;;;;;;;;5083805;28;20035;-47
2023/07/01 09:32:11;;;;;;;7.47;1.80;;;;;;;;;;5083929;28;20032;-46
2023/07/01 09:34:58;;;;;;;8.30;1.60;;;;;;;;;;5083785;28;20337;-46
2023/07/01 09:37:28;;;;;;;8.80;1.70;;;;;;;;;;5083838;28;20039;-53
2023/07/01 09:39:56;;;;;;;6.57;1.80;;;;;;;;;;5083908;28;20039;-45
2023/07/01 09:42:22;;;;;;;9.50;1.92;;;;;;;;;;5083695;28;20051;-48
2023/07/01 09:45:08;;;;;;;6.57;1.52;;;;;;;;;;5083837;28;20068;-49
2023/07/01 09:47:35;;;;;;;9.05;1.77;;;;;;;;;;5083665;28;20024;-49
2023/07/01 09:50:02;;;;;;;5.25;1.60;;;;;;;;;;5083823;28;20043;-52
2023/07/01 09:52:32;;;;;;;5.50;1.67;;;;;;;;;;5083784;28;20354;-48
2023/07/01 09:55:00;;;;;;;5.22;1.60;;;;;;;;;;5083514;28;20125;-52
2023/07/01 09:57:27;;;;;;;7.85;2.17;;;;;;;;;;5085965;28;20040;-49
2023/07/01 09:59:54;;;;;;;8.63;1.88;;;;;;;;;;5087685;28;20272;-52
2023/07/01 10:02:20;;;;;;;5.18;1.70;;;;;;;;;;5087498;28;20024;-52
2023/07/01 10:04:48;;;;;;;5.25;1.90;;;;;;;;;;5087706;28;20236;-46
2023/07/01 10:07:15;;;;;;;9.00;2.03;;;;;;;;;;5087569;28;20025;-51
2023/07/01 10:09:45;;;;;;;6.45;1.83;;;;;;;;;;5087476;28;20024;-48
2023/07/01 10:12:12;;;;;;;6.85;2.15;;;;;;;;;;5087353;28;20035;-49
2023/07/01 10:14:40;;;;;;;8.70;1.83;;;;;;;;;;5087500;28;20028;-49
2023/07/01 10:17:07;;;;;;;7.05;2.10;;;;;;;;;;5087175;28;20079;-47
2023/07/01 10:19:34;;;;;;;5.43;1.73;;;;;;;;;;5087558;28;20044;-51
2023/07/01 10:22:20;;;;;;;7.60;2.08;;;;;;;;;;5087254;28;20024;-48
2023/07/01 10:24:54;;;;;;;11.45;2.28;;;;;;;;;;5087046;28;20044;-48
2023/07/01 10:27:41;;;;;;;10.75;2.38;;;;;;;;;;5087228;28;20265;-48
2023/07/01 10:30:09;;;;;;;10.65;2.58;;;;;;;;;;5056607;28;20046;-47
2023/07/01 10:32:35;;;;;;;6.68;2.40;;;;;;;;;;5087183;28;20025;-49
2023/07/01 10:35:05;;;;;;;7.53;2.17;;;;;;;;;;5086778;28;20057;-48
2023/07/01 10:37:33;;;;;;;9.20;2.00;;;;;;;;;;5087066;28;20062;-48
2023/07/01 10:40:00;;;;;;;6.93;2.33;;;;;;;;;;5086942;28;20056;-48
2023/07/01 10:42:33;;;;;;;8.38;2.38;;;;;;;;;;5086855;28;20299;-47
2023/07/01 10:45:12;;;;;;;5.30;2.05;;;;;;;;;;5086805;28;20032;-47
2023/07/01 10:47:46;;;;;;;10.23;2.35;;;;;;;;;;5086781;28;20040;-46
2023/07/01 10:50:14;;;;;;;12.02;2.33;;;;;;;;;;5086880;28;20359;-48
2023/07/01 10:52:58;;;;;;;9.88;2.67;;;;;;;;;;5086753;28;20029;-55
2023/07/01 10:55:34;;;;;;;5.28;2.20;;;;;;;;;;5086683;28;20041;-45
2023/07/01 10:58:21;;;;;;;6.45;2.22;;;;;;;;;;5086711;28;20032;-49
2023/07/01 11:00:48;;;;;;;4.60;2.17;;;;;;;;;;5086432;28;20111;-46
2023/07/01 11:03:33;;;;;;;4.40;1.95;;;;;;;;;;5086526;28;20070;-48
2023/07/01 11:06:10;;;;;;;4.50;2.08;;;;;;;;;;5086602;28;20071;-50
2023/07/01 11:08:45;;;;;;;4.22;2.10;;;;;;;;;;5086288;28;20100;-50
2023/07/01 11:11:18;;;;;;;4.50;2.15;;;;;;;;;;5086587;28;20225;-44
2023/07/01 11:13:57;;;;;;;5.35;2.05;;;;;;;;;;5095340;28;20020;-46
2023/07/01 11:16:25;;;;;;;5.47;2.42;;;;;;;;;;5106521;28;20036;-48
2023/07/01 11:18:53;;;;;;;3.15;2.22;;;;;;;;;;5106920;28;20020;-49
2023/07/01 11:21:27;;;;;;;5.35;3.13;;;;;;;;;;5106377;28;20026;-48
2023/07/01 11:23:55;;;;;;;7.03;3.92;;;;;;;;;;5106558;28;20032;-44
2023/07/01 11:26:23;;;;;;;7.53;3.72;;;;;;;;;;5106138;28;20016;-44
2023/07/01 11:28:50;;;;;;;5.47;3.65;;;;;;;;;;5099930;28;20024;-47
2023/07/01 11:31:17;;;;;;;7.90;3.85;;;;;;;;;;5103458;28;20365;-48
2023/07/01 11:33:45;;;;;;;5.85;3.40;;;;;;;;;;5099922;28;20358;-45
2023/07/01 11:36:14;;;;;;;5.93;3.40;;;;;;;;;;5106116;28;20024;-44
2023/07/01 11:38:47;;;;;;;5.95;3.13;;;;;;;;;;5103859;28;20024;-56
2023/07/01 11:41:18;;;;;;;7.95;3.10;;;;;;;;;;5099386;28;20040;-46
2023/07/01 11:43:45;;;;;;;5.90;4.93;;;;;;;;;;5097894;28;20058;-50
2023/07/01 11:46:12;;;;;;;10.27;5.80;;;;;;;;;;5097259;28;20043;-54
2023/07/01 11:48:40;;;;;;;6.38;4.25;;;;;;;;;;5106180;28;20024;-43
2023/07/01 11:51:07;;;;;;;5.10;3.55;;;;;;;;;;5105302;28;20058;-47
2023/07/01 11:53:34;;;;;;;4.95;3.40;;;;;;;;;;5106096;28;20027;-54
2023/07/01 11:56:02;;;;;;;4.38;3.33;;;;;;;;;;5105663;28;20310;-54
2023/07/01 11:58:30;;;;;;;4.95;3.55;;;;;;;;;;5106057;28;20028;-56
2023/07/01 12:00:56;;;;;;;7.38;3.20;;;;;;;;;;5104238;28;20050;-53
2023/07/01 12:03:23;;;;;;;8.98;3.00;;;;;;;;;;5105441;28;20027;-49
2023/07/01 12:05:50;;;;;;;6.93;3.03;;;;;;;;;;5090638;28;20032;-49
2023/07/01 12:08:17;;;;;;;7.72;3.13;;;;;;;;;;5083893;28;20031;-53
2023/07/01 12:10:45;;;;;;;5.43;3.03;;;;;;;;;;5083841;28;20023;-56
2023/07/01 12:13:30;;;;;;;4.28;3.10;;;;;;;;;;5085074;28;20305;-50
2023/07/01 12:15:58;;;;;;;5.75;3.08;;;;;;;;;;5084984;28;20201;-58
2023/07/01 12:18:27;;;;;;;5.68;2.95;;;;;;;;;;5085406;28;20278;-47
2023/07/01 12:20:57;;;;;;;4.93;2.95;;;;;;;;;;5085135;28;20036;-48
2023/07/01 12:23:24;;;;;;;7.30;2.83;;;;;;;;;;5084852;28;20211;-47
2023/07/01 12:25:51;;;;;;;6.78;3.20;;;;;;;;;;5084553;28;20048;-52
2023/07/01 12:28:20;;;;;;;7.45;2.90;;;;;;;;;;5085000;28;20028;-46
2023/07/01 12:30:50;;;;;;;6.30;3.00;;;;;;;;;;5084600;28;20024;-51
2023/07/01 12:33:17;;;;;;;7.38;3.13;;;;;;;;;;5084752;28;20040;-51
2023/07/01 12:35:44;;;;;;;6.20;2.90;;;;;;;;;;5084805;28;20036;-47
2023/07/01 12:38:14;;;;;;;10.68;3.00;;;;;;;;;;5084683;28;20021;-63
2023/07/01 12:40:41;;;;;;;6.75;2.90;;;;;;;;;;5084633;28;20044;-50
2023/07/01 12:43:07;;;;;;;7.88;2.60;;;;;;;;;;5084839;28;20028;-46
2023/07/01 12:45:34;;;;;;;5.63;2.92;;;;;;;;;;5100462;28;20182;-47
2023/07/01 12:48:02;;;;;;;4.10;2.58;;;;;;;;;;5085249;28;20300;-46
2023/07/01 12:50:29;;;;;;;6.38;3.03;;;;;;;;;;5084164;28;20059;-51
2023/07/01 12:52:57;;;;;;;4.10;2.30;;;;;;;;;;5084388;28;20008;-46
2023/07/01 12:55:24;;;;;;;4.55;2.40;;;;;;;;;;5084353;28;20036;-50
2023/07/01 12:57:51;;;;;;;5.25;2.67;;;;;;;;;;5084472;28;20027;-48
2023/07/01 13:00:18;;;;;;;6.78;3.40;;;;;;;;;;5085170;28;20024;-53
2023/07/01 13:02:47;;;;;;;5.63;3.42;;;;;;;;;;5103839;28;20056;-53
2023/07/01 13:05:19;;;;;;;6.28;3.35;;;;;;;;;;5104450;28;20032;-45
2023/07/01 13:07:48;;;;;;;4.68;3.00;;;;;;;;;;5104449;28;20035;-48
2023/07/01 13:10:18;;;;;;;4.03;2.90;;;;;;;;;;5104306;28;20024;-45
2023/07/01 13:12:45;;;;;;;5.55;3.03;;;;;;;;;;5104059;28;20047;-47
2023/07/01 13:15:32;;;;;;;4.65;2.83;;;;;;;;;;5103898;28;20047;-45
2023/07/01 13:17:59;;;;;;;4.65;2.90;;;;;;;;;;5103185;28;20323;-50
2023/07/01 13:20:27;;;;;;;4.13;2.63;;;;;;;;;;5103733;28;20052;-46
2023/07/01 13:22:55;;;;;;;4.88;2.65;;;;;;;;;;5102391;28;20205;-47
2023/07/01 13:25:23;;;;;;;4.53;2.47;;;;;;;;;;5102296;28;20031;-46
2023/07/01 13:27:50;;;;;;;3.58;2.50;;;;;;;;;;5102718;28;20032;-48
2023/07/01 13:30:37;;;;;;;5.80;2.38;;;;;;;;;;5102587;28;20032;-52
2023/07/01 13:33:04;;;;;;;4.40;2.53;;;;;;;;;;5101988;28;20058;-47
2023/07/01 13:35:31;;;;;;;4.38;2.60;;;;;;;;;;5102746;28;20028;-54
2023/07/01 13:38:07;;;;;;;4.65;2.42;;;;;;;;;;5104028;28;20200;-49
2023/07/01 13:40:42;;;;;;;7.90;2.38;;;;;;;;;;5104039;28;20332;-51
2023/07/01 13:43:27;;;;;;;4.85;2.58;;;;;;;;;;5104151;28;20070;-48
2023/07/01 13:45:53;;;;;;;5.53;2.83;;;;;;;;;;5103940;28;20095;-47
2023/07/01 13:48:49;;;;;;;7.38;2.30;;;;;;;;;;5104183;28;20020;-58
2023/07/01 13:51:15;;;;;;;3.30;2.17;;;;;;;;;;5091109;28;20069;-52
2023/07/01 13:53:43;;;;;;;4.90;2.22;;;;;;;;;;5104211;28;20028;-50
2023/07/01 13:56:09;;;;;;;2.78;2.00;;;;;;;;;;5103856;28;20028;-51
2023/07/01 13:58:42;;;;;;;3.90;2.05;;;;;;;;;;5104170;28;20044;-47
2023/07/01 14:01:10;;;;;;;3.28;2.10;;;;;;;;;;5102535;28;20054;-50
2023/07/01 14:03:51;;;;;;;3.25;1.90;;;;;;;;;;5103973;28;20099;-49
2023/07/01 14:06:18;;;;;;;2.47;1.90;;;;;;;;;;5103695;28;20035;-46
2023/07/01 14:08:45;;;;;;;2.88;1.80;;;;;;;;;;5103984;28;20339;-51
2023/07/01 14:11:13;;;;;;;2.72;1.90;;;;;;;;;;5103697;28;20032;-46
2023/07/01 14:13:40;;;;;;;2.88;1.85;;;;;;;;;;5103883;28;20020;-50
2023/07/01 14:16:06;;;;;;;3.15;1.90;;;;;;;;;;5103617;28;20376;-49
2023/07/01 14:18:35;;;;;;;3.53;1.80;;;;;;;;;;5103955;28;20012;-46
2023/07/01 14:21:04;;;;;;;2.85;1.90;;;;;;;;;;5103576;28;20085;-45
2023/07/01 14:23:40;;;;;;;6.82;2.15;;;;;;;;;;5103688;28;20059;-43
2023/07/01 14:26:17;;;;;;;6.40;2.22;;;;;;;;;;5103573;28;20091;-47
2023/07/01 14:28:44;;;;;;;4.43;1.80;;;;;;;;;;5103774;28;20024;-52
2023/07/01 14:31:14;;;;;;;2.17;1.63;;;;;;;;;;5103560;28;20069;-49
2023/07/01 14:33:41;;;;;;;3.28;1.88;;;;;;;;;;5103379;28;20052;-50
2023/07/01 14:36:11;;;;;;;3.78;2.10;;;;;;;;;;5103496;28;20052;-48
2023/07/01 14:38:40;;;;;;;3.30;1.75;;;;;;;;;;5103760;28;20267;-51
2023/07/01 14:41:12;;;;;;;3.17;1.63;;;;;;;;;;5103321;28;20312;-49
2023/07/01 14:43:40;;;;;;;3.03;1.90;;;;;;;;;;5104732;28;20204;-51
2023/07/01 14:46:07;;;;;;;3.20;1.90;;;;;;;;;;5107248;28;20031;-47
2023/07/01 14:48:34;;;;;;;2.25;1.80;;;;;;;;;;5107203;28;20023;-49